createdAt,value
2018-05-29T00:01:38.982Z,3.5
2018-05-29T00:04:39.036Z,3.3
2018-05-29T00:07:38.895Z,3.3
2018-05-29T00:10:39.107Z,3.4
2018-05-29T00:13:38.968Z,3
2018-05-29T00:16:39.010Z,3.4
2018-05-29T00:19:39.103Z,2.9
2018-05-29T00:22:39.046Z,3.2
2018-05-29T00:25:39.019Z,3.1
2018-05-29T00:28:39.043Z,2.9
2018-05-29T00:31:38.938Z,3
2018-05-29T00:34:39.115Z,3.5
2018-05-29T00:37:39.160Z,3.2
2018-05-29T00:40:38.946Z,2.7
2018-05-29T00:43:39.103Z,3.2
2018-05-29T00:46:39.080Z,3.4
2018-05-29T00:49:39.213Z,2.8
2018-05-29T00:52:39.196Z,2.9
2018-05-29T00:55:39.782Z,3
2018-05-29T00:58:41.617Z,3
2018-05-29T01:01:39.064Z,2.8
2018-05-29T01:04:38.864Z,3.2
2018-05-29T01:07:39.020Z,2.9
2018-05-29T01:10:38.934Z,3.3
2018-05-29T01:13:39.127Z,3
2018-05-29T01:16:38.976Z,3
2018-05-29T01:19:39.051Z,3.2
2018-05-29T01:22:39.028Z,2.8
2018-05-29T01:25:39.007Z,3
2018-05-29T01:28:39.158Z,3.2
2018-05-29T01:31:38.898Z,2.8
2018-05-29T01:34:38.946Z,3.2
2018-05-29T01:37:38.879Z,2.8
2018-05-29T01:40:38.891Z,2.9
2018-05-29T01:43:39.153Z,3
2018-05-29T01:46:38.850Z,2.9
2018-05-29T01:49:38.958Z,2.8
2018-05-29T01:52:39.012Z,3.1
2018-05-29T01:55:38.980Z,2.8
2018-05-29T01:58:38.713Z,3.1
2018-05-29T02:01:39.034Z,3.1
2018-05-29T02:04:39.580Z,3
2018-05-29T02:07:38.919Z,3.2
2018-05-29T02:10:38.757Z,2.9
2018-05-29T02:13:38.959Z,2.9
2018-05-29T02:16:38.877Z,3
2018-05-29T02:19:38.775Z,3
2018-05-29T02:22:38.823Z,2.7
2018-05-29T02:25:38.909Z,4
2018-05-29T02:28:38.910Z,2.9
2018-05-29T02:31:39.003Z,2.8
2018-05-29T02:34:38.999Z,2.8
2018-05-29T02:37:39.006Z,3.1
2018-05-29T02:40:38.915Z,2.9
2018-05-29T02:43:38.928Z,3.2
2018-05-29T02:46:38.855Z,2.9
2018-05-29T02:49:38.852Z,3
2018-05-29T02:52:38.814Z,3
2018-05-29T02:55:39.172Z,3
2018-05-29T02:58:39.288Z,3
2018-05-29T03:01:38.947Z,2.8
2018-05-29T03:04:39.020Z,2.9
2018-05-29T03:07:39.823Z,3
2018-05-29T03:10:39.057Z,2.9
2018-05-29T03:13:38.926Z,2.9
2018-05-29T03:16:38.939Z,3.2
2018-05-29T03:19:38.824Z,2.9
2018-05-29T03:22:38.864Z,3
2018-05-29T03:25:38.937Z,2.8
2018-05-29T03:28:38.932Z,3.1
2018-05-29T03:31:38.632Z,3
2018-05-29T03:34:38.476Z,2.9
2018-05-29T03:37:38.772Z,3
2018-05-29T03:40:38.612Z,2.8
2018-05-29T03:43:38.602Z,2.8
2018-05-29T03:46:38.763Z,2.8
2018-05-29T03:49:38.506Z,2.9
2018-05-29T03:52:38.703Z,2.7
2018-05-29T03:55:38.384Z,3.1
2018-05-29T03:58:38.558Z,2.8
2018-05-29T04:01:38.397Z,2.9
2018-05-29T04:04:38.549Z,2.8
2018-05-29T04:07:38.595Z,2.8
2018-05-29T04:10:38.541Z,2.8
2018-05-29T04:13:38.623Z,3
2018-05-29T04:16:38.517Z,3.1
2018-05-29T04:19:38.701Z,2.9
2018-05-29T04:22:38.724Z,3.3
2018-05-29T04:25:38.689Z,2.9
2018-05-29T04:28:38.564Z,2.8
2018-05-29T04:31:38.392Z,3
2018-05-29T04:34:38.368Z,2.8
2018-05-29T04:37:38.666Z,2.9
2018-05-29T04:40:38.672Z,2.9
2018-05-29T04:43:38.890Z,2.8
2018-05-29T04:46:38.415Z,2.8
2018-05-29T04:49:38.928Z,3
2018-05-29T04:52:38.436Z,2.8
2018-05-29T04:55:38.625Z,2.8
2018-05-29T04:58:38.513Z,2.7
2018-05-29T05:01:38.410Z,2.7
2018-05-29T05:04:38.369Z,2.7
2018-05-29T05:07:38.553Z,2.7
2018-05-29T05:10:38.524Z,2.6
2018-05-29T05:13:38.399Z,2.7
2018-05-29T05:16:38.590Z,2.8
2018-05-29T05:19:38.429Z,2.7
2018-05-29T05:22:38.815Z,2.7
2018-05-29T05:25:38.453Z,2.7
2018-05-29T05:28:38.488Z,2.8
2018-05-29T05:31:38.489Z,2.6
2018-05-29T05:34:38.731Z,2.7
2018-05-29T05:37:38.648Z,2.9
2018-05-29T05:40:38.570Z,2.7
2018-05-29T05:43:38.460Z,2.7
2018-05-29T05:46:38.449Z,2.6
2018-05-29T05:49:38.557Z,2.9
2018-05-29T05:52:38.659Z,2.7
2018-05-29T05:55:38.602Z,2.6
2018-05-29T05:58:38.618Z,2.6
2018-05-29T06:01:38.558Z,2.6
2018-05-29T06:04:38.405Z,2.4
2018-05-29T06:07:38.458Z,2.7
2018-05-29T06:10:38.660Z,2.6
2018-05-29T06:13:38.739Z,2.7
2018-05-29T06:16:38.564Z,2.7
2018-05-29T06:19:38.582Z,2.6
2018-05-29T06:22:38.381Z,2.8
2018-05-29T06:25:38.541Z,2.8
2018-05-29T06:28:38.502Z,3.3
2018-05-29T06:31:38.361Z,3.2
2018-05-29T06:34:38.554Z,3.4
2018-05-29T06:37:38.468Z,5.3
2018-05-29T06:40:38.395Z,2.8
2018-05-29T06:43:38.387Z,3.1
2018-05-29T06:46:38.594Z,3.3
2018-05-29T06:49:38.385Z,3
2018-05-29T06:52:39.108Z,2.9
2018-05-29T06:55:38.488Z,2.8
2018-05-29T06:58:38.530Z,3.1
2018-05-29T07:01:38.461Z,3.1
2018-05-29T07:04:38.441Z,3
2018-05-29T07:07:38.410Z,3.1
2018-05-29T07:10:38.588Z,3.2
2018-05-29T07:13:38.628Z,3.1
2018-05-29T07:16:38.412Z,3.4
2018-05-29T07:19:38.586Z,3.2
2018-05-29T07:22:38.587Z,3.2
2018-05-29T07:25:38.491Z,3.1
2018-05-29T07:28:38.551Z,3.3
2018-05-29T07:31:38.377Z,3.1
2018-05-29T07:34:38.479Z,3.2
2018-05-29T07:37:38.377Z,3.2
2018-05-29T07:40:38.514Z,2.9
2018-05-29T07:43:38.697Z,3.1
2018-05-29T07:46:38.673Z,3.1
2018-05-29T07:49:38.434Z,3.1
2018-05-29T07:52:38.464Z,3.2
2018-05-29T07:55:38.488Z,2.8
2018-05-29T07:58:38.410Z,3
2018-05-29T08:01:38.601Z,2.9
2018-05-29T08:04:38.614Z,3
2018-05-29T08:07:38.498Z,2.9
2018-05-29T08:10:39.379Z,2.9
2018-05-29T08:13:38.566Z,3
2018-05-29T08:16:38.546Z,2.8
2018-05-29T08:19:38.479Z,2.8
2018-05-29T08:22:38.471Z,3.1
2018-05-29T08:25:38.347Z,2.9
2018-05-29T08:28:38.493Z,2.9
2018-05-29T08:31:38.507Z,3
2018-05-29T08:34:38.481Z,3
2018-05-29T08:37:38.657Z,2.9
2018-05-29T08:40:38.406Z,3.3
2018-05-29T08:43:38.501Z,2.8
2018-05-29T08:46:38.595Z,3.1
2018-05-29T08:49:38.587Z,3
2018-05-29T08:52:38.464Z,3.4
2018-05-29T08:55:38.614Z,3
2018-05-29T08:58:38.428Z,2.9
2018-05-29T09:01:38.567Z,3
2018-05-29T09:04:38.494Z,2.9
2018-05-29T09:07:38.677Z,2.9
2018-05-29T09:10:38.347Z,3.1
2018-05-29T09:13:38.411Z,2.8
2018-05-29T09:16:38.513Z,3.1
2018-05-29T09:19:38.367Z,2.8
2018-05-29T09:22:38.533Z,2.7
2018-05-29T09:25:38.569Z,2.9
2018-05-29T09:28:38.408Z,2.9
2018-05-29T09:31:38.547Z,2.9
2018-05-29T09:34:38.560Z,3.2
2018-05-29T09:37:38.379Z,2.8
2018-05-29T09:40:38.445Z,2.7
2018-05-29T09:43:38.381Z,2.8
2018-05-29T09:46:38.402Z,2.9
2018-05-29T09:49:38.501Z,2.9
2018-05-29T09:52:38.542Z,2.8
2018-05-29T09:55:38.694Z,2.6
2018-05-29T09:58:38.457Z,3
2018-05-29T10:01:38.576Z,2.7
2018-05-29T10:04:38.438Z,3
2018-05-29T10:07:38.406Z,2.8
2018-05-29T10:10:38.503Z,2.9
2018-05-29T10:13:38.527Z,2.7
2018-05-29T10:16:38.581Z,2.8
2018-05-29T10:19:38.467Z,2.8
2018-05-29T10:22:38.406Z,2.9
2018-05-29T10:25:38.452Z,2.8
2018-05-29T10:28:38.459Z,2.8
2018-05-29T10:31:38.664Z,2.9
2018-05-29T10:34:38.536Z,2.9
2018-05-29T10:37:38.374Z,2.6
2018-05-29T10:40:38.365Z,2.9
2018-05-29T10:43:38.526Z,2.7
2018-05-29T10:46:38.532Z,2.7
2018-05-29T10:49:38.435Z,2.8
2018-05-29T10:52:38.338Z,2.9
2018-05-29T10:55:38.602Z,2.8
2018-05-29T10:58:38.232Z,2.7
2018-05-29T11:01:38.416Z,2.8
2018-05-29T11:04:38.400Z,2.7
2018-05-29T11:07:38.476Z,2.7
2018-05-29T11:10:38.386Z,2.6
2018-05-29T11:13:38.507Z,2.7
2018-05-29T11:16:38.551Z,2.8
2018-05-29T11:19:38.556Z,2.8
2018-05-29T11:22:38.399Z,2.8
2018-05-29T11:25:38.632Z,2.6
2018-05-29T11:28:38.407Z,2.6
2018-05-29T11:31:38.459Z,2.6
2018-05-29T11:34:38.343Z,2.8
2018-05-29T11:37:38.274Z,2.7
2018-05-29T11:40:38.768Z,2.6
2018-05-29T11:43:38.347Z,2.7
2018-05-29T11:46:38.417Z,2.6
2018-05-29T11:49:38.392Z,2.8
2018-05-29T11:52:38.272Z,2.7
2018-05-29T11:55:38.418Z,2.8
2018-05-29T11:58:38.499Z,2.5
2018-05-29T12:01:38.456Z,2.8
2018-05-29T12:04:38.463Z,2.6
2018-05-29T12:07:39.115Z,2.7
2018-05-29T12:10:38.525Z,2.7
2018-05-29T12:13:38.653Z,2.8
2018-05-29T12:16:38.511Z,2.6
2018-05-29T12:19:38.568Z,2.7
2018-05-29T12:22:38.326Z,2.6
2018-05-29T12:25:38.327Z,2.6
2018-05-29T12:28:38.244Z,2.9
2018-05-29T12:31:38.490Z,2.5
2018-05-29T12:34:38.568Z,2.6
2018-05-29T12:37:38.523Z,2.6
2018-05-29T12:40:38.367Z,2.6
2018-05-29T12:43:38.416Z,2.6
2018-05-29T12:46:38.395Z,2.6
2018-05-29T12:49:38.439Z,2.6
2018-05-29T12:52:38.536Z,2.6
2018-05-29T12:55:38.299Z,2.6
2018-05-29T12:58:38.574Z,2.4
2018-05-29T13:01:38.365Z,2.5
2018-05-29T13:04:38.454Z,2.7
2018-05-29T13:07:38.279Z,2.7
2018-05-29T13:10:38.281Z,2.6
2018-05-29T13:13:38.365Z,2.6
2018-05-29T13:16:38.834Z,2.5
2018-05-29T13:19:38.462Z,2.6
2018-05-29T13:22:39.305Z,2.6
2018-05-29T13:25:38.272Z,2.5
2018-05-29T13:28:38.298Z,2.4
2018-05-29T13:31:38.291Z,2.7
2018-05-29T13:34:38.392Z,2.5
2018-05-29T13:37:38.469Z,2.7
2018-05-29T13:40:38.731Z,2.4
2018-05-29T13:43:38.368Z,2.5
2018-05-29T13:46:38.428Z,2.7
2018-05-29T13:49:38.502Z,2.5
2018-05-29T13:52:38.394Z,2.7
2018-05-29T13:55:38.476Z,2.6
2018-05-29T13:58:38.387Z,2.5
2018-05-29T14:01:38.364Z,2.6
2018-05-29T14:04:38.563Z,2.6
2018-05-29T14:07:38.414Z,2.6
2018-05-29T14:10:38.421Z,2.6
2018-05-29T14:13:38.428Z,2.7
2018-05-29T14:16:38.424Z,3.3
2018-05-29T14:19:38.394Z,2.4
2018-05-29T14:22:38.289Z,2.6
2018-05-29T14:25:38.231Z,2.5
2018-05-29T14:28:38.601Z,2.6
2018-05-29T14:31:38.324Z,2.7
2018-05-29T14:34:38.464Z,2.7
2018-05-29T14:37:38.336Z,3.3
2018-05-29T14:40:38.317Z,2.7
2018-05-29T14:43:38.639Z,2.7
2018-05-29T14:46:38.394Z,2.7
2018-05-29T14:49:38.397Z,2.6
2018-05-29T14:52:38.382Z,2.8
2018-05-29T14:55:38.238Z,2.6
2018-05-29T14:58:38.834Z,2.6
2018-05-29T15:01:38.239Z,2.7
2018-05-29T15:04:38.361Z,2.7
2018-05-29T15:07:38.414Z,2.7
2018-05-29T15:10:38.251Z,2.7
2018-05-29T15:13:38.473Z,2.8
2018-05-29T15:16:38.418Z,2.6
2018-05-29T15:19:38.368Z,2.6
2018-05-29T15:22:38.239Z,2.6
2018-05-29T15:25:38.337Z,2.5
2018-05-29T15:28:38.445Z,2.7
2018-05-29T15:31:38.442Z,2.5
2018-05-29T15:34:38.462Z,2.6
2018-05-29T15:37:38.393Z,2.5
2018-05-29T15:40:38.560Z,2.6
2018-05-29T15:43:38.429Z,2.7
2018-05-29T15:46:38.471Z,2.6
2018-05-29T15:49:38.390Z,2.6
2018-05-29T15:52:38.273Z,2.6
2018-05-29T15:55:38.379Z,2.5
2018-05-29T15:58:38.368Z,2.7
2018-05-29T16:01:38.460Z,2.6
2018-05-29T16:04:38.345Z,2.7
2018-05-29T16:07:38.340Z,2.6
2018-05-29T16:10:38.413Z,2.5
2018-05-29T16:13:38.437Z,2.5
2018-05-29T16:16:38.351Z,2.6
2018-05-29T16:19:38.334Z,2.5
2018-05-29T16:22:38.413Z,2.4
2018-05-29T16:25:38.570Z,2.4
2018-05-29T16:28:38.465Z,2.4
2018-05-29T16:31:38.433Z,2.3
2018-05-29T16:34:38.751Z,2.5
2018-05-29T16:37:38.244Z,2.9
2018-05-29T16:40:38.958Z,2.5
2018-05-29T16:43:38.186Z,2.4
2018-05-29T16:46:38.437Z,2.4
2018-05-29T16:49:38.427Z,2.6
2018-05-29T16:52:38.392Z,2.5
2018-05-29T16:55:38.367Z,2.3
2018-05-29T16:58:38.156Z,2.3
2018-05-29T17:01:38.226Z,2.5
2018-05-29T17:04:38.262Z,2.3
2018-05-29T17:07:38.388Z,2.3
2018-05-29T17:10:38.324Z,2.2
2018-05-29T17:13:38.562Z,2.3
2018-05-29T17:16:38.253Z,2.5
2018-05-29T17:19:38.309Z,2.4
2018-05-29T17:22:38.367Z,2.4
2018-05-29T17:25:38.426Z,2.4
2018-05-29T17:28:38.463Z,2.4
2018-05-29T17:31:38.377Z,2.5
2018-05-29T17:34:38.165Z,2.4
2018-05-29T17:37:38.336Z,2.4
2018-05-29T17:40:38.537Z,2.4
2018-05-29T17:43:38.270Z,2.2
2018-05-29T17:46:38.368Z,3
2018-05-29T17:49:38.449Z,2.9
2018-05-29T17:52:38.279Z,4.6
2018-05-29T17:55:38.323Z,2.4
2018-05-29T18:03:49.608Z,2.8
2018-05-29T18:06:49.811Z,3.5
2018-05-29T18:09:49.739Z,6
2018-05-29T18:12:49.852Z,8
2018-05-29T18:15:49.881Z,6.6
2018-05-29T18:18:49.620Z,6.4
2018-05-29T18:21:49.764Z,4.7
2018-05-29T18:24:49.807Z,3.3
2018-05-29T18:27:49.570Z,5.8
2018-05-29T18:30:49.822Z,3.7
2018-05-29T18:33:49.857Z,2.9
2018-05-29T18:36:49.917Z,2.5
2018-05-29T18:40:21.575Z,6.2
2018-05-29T18:42:49.934Z,4.2
2018-05-29T18:45:49.947Z,3.1
2018-05-29T18:48:49.897Z,2.5
2018-05-29T18:51:49.823Z,3.9
2018-05-29T18:54:49.822Z,3.3
2018-05-29T18:57:49.610Z,2.7
2018-05-29T19:00:49.953Z,3.5
2018-05-29T19:03:49.805Z,3.1
2018-05-29T19:06:49.844Z,2.8
2018-05-29T19:09:50.230Z,4.3
2018-05-29T19:12:49.659Z,2.6
2018-05-29T19:15:49.645Z,2.4
2018-05-29T19:18:49.830Z,2.5
2018-05-29T19:21:50.025Z,2.7
2018-05-29T19:24:49.639Z,3.8
2018-05-29T19:27:49.755Z,5.2
2018-05-29T19:30:49.880Z,3.7
2018-05-29T19:33:49.894Z,6.4
2018-05-29T19:36:49.794Z,5.3
2018-05-29T19:39:49.970Z,5.9
2018-05-29T19:42:49.931Z,4.1
2018-05-29T19:45:49.751Z,3.7
2018-05-29T19:48:49.741Z,3.6
2018-05-29T19:51:49.943Z,4.1
2018-05-29T19:54:49.965Z,3.6
2018-05-29T19:57:49.801Z,3.7
2018-05-29T20:00:49.804Z,4
2018-05-29T20:03:49.717Z,3.4
2018-05-29T20:06:50.225Z,3.3
2018-05-29T20:09:49.644Z,5.5
2018-05-29T20:12:49.949Z,3
2018-05-29T20:15:49.905Z,4.7
2018-05-29T20:18:49.769Z,4.9
2018-05-29T20:21:49.832Z,5
2018-05-29T20:24:49.661Z,4.1
2018-05-29T20:27:49.979Z,4.7
2018-05-29T20:30:49.934Z,5.5
2018-05-29T20:33:49.916Z,4.1
2018-05-29T20:36:50.590Z,2.6
2018-05-29T20:39:49.856Z,4.9
2018-05-29T20:42:49.799Z,3.1
2018-05-29T20:45:49.893Z,4
2018-05-29T20:48:49.859Z,3.9
2018-05-29T20:51:49.937Z,4
2018-05-29T20:54:49.921Z,4.3
2018-05-29T20:57:49.919Z,3.6
2018-05-29T21:00:50.014Z,2.7
2018-05-29T21:03:49.923Z,2.8
2018-05-29T21:06:49.949Z,2.9
2018-05-29T21:09:49.875Z,4.1
2018-05-29T21:12:49.750Z,2.4
2018-05-29T21:15:49.838Z,4.5
2018-05-29T21:18:49.843Z,2.3
2018-05-29T21:21:49.855Z,3.5
2018-05-29T21:24:49.860Z,2.6
2018-05-29T21:27:50.024Z,2.7
2018-05-29T21:30:49.869Z,2.9
2018-05-29T21:33:49.828Z,3.8
2018-05-29T21:36:49.702Z,2.6
2018-05-29T21:39:49.836Z,2.8
2018-05-29T21:42:49.757Z,2.9
2018-05-29T21:45:49.846Z,2.8
2018-05-29T21:48:49.804Z,2.7
2018-05-29T21:51:49.888Z,2.5
2018-05-29T21:54:49.769Z,2.3
2018-05-29T21:57:49.727Z,3.4
2018-05-29T22:00:49.652Z,2.4
2018-05-29T22:03:49.876Z,2.4
2018-05-29T22:06:49.786Z,2.8
2018-05-29T22:09:49.686Z,2.5
2018-05-29T22:12:49.709Z,2.6
2018-05-29T22:15:49.825Z,2.6
2018-05-29T22:18:49.862Z,2.8
2018-05-29T22:21:49.844Z,2.5
2018-05-29T22:24:49.893Z,2.7
2018-05-29T22:27:49.631Z,2.4
2018-05-29T22:30:49.839Z,2.8
2018-05-29T22:33:49.725Z,2.5
2018-05-29T22:36:49.871Z,2.3
2018-05-29T22:39:49.731Z,2.7
2018-05-29T22:42:49.703Z,2.3
2018-05-29T22:45:49.796Z,2.4
2018-05-29T22:48:50.322Z,2.6
2018-05-29T22:51:50.019Z,2.8
2018-05-29T22:54:49.590Z,2.5
2018-05-29T22:57:49.846Z,2.4
2018-05-29T23:00:49.873Z,2.5
2018-05-29T23:03:49.977Z,2.4
2018-05-29T23:06:49.871Z,2.4
2018-05-29T23:09:50.174Z,2.8
2018-05-29T23:12:49.849Z,2.3
2018-05-29T23:15:49.868Z,2.3
2018-05-29T23:18:49.653Z,2.4
2018-05-29T23:21:50.032Z,2.4
2018-05-29T23:24:49.943Z,2.4
2018-05-29T23:27:49.744Z,2.4
2018-05-29T23:30:49.854Z,2.6
2018-05-29T23:33:49.921Z,3.4
2018-05-29T23:36:49.689Z,2.4
2018-05-29T23:39:49.629Z,2.7
2018-05-29T23:42:49.584Z,2.5
2018-05-29T23:45:49.932Z,2.4
2018-05-29T23:48:49.946Z,2.4
2018-05-29T23:51:49.693Z,2.9
2018-05-29T23:54:49.571Z,2.4
2018-05-29T23:57:49.706Z,2.5
